createdAt,value
2019-01-10T00:01:59.401Z,80.10
2019-01-10T00:04:29.055Z,80.30
2019-01-10T00:06:58.705Z,80.30
2019-01-10T00:09:28.324Z,80.40
2019-01-10T00:11:57.953Z,80.40
2019-01-10T00:14:27.660Z,80.40
2019-01-10T00:16:57.278Z,80.50
2019-01-10T00:19:26.917Z,80.50
2019-01-10T00:21:56.561Z,80.50
2019-01-10T00:24:26.138Z,80.60
2019-01-10T00:26:56.498Z,80.60
2019-01-10T00:29:26.083Z,80.60
2019-01-10T00:31:55.674Z,80.60
2019-01-10T00:34:25.372Z,80.60
2019-01-10T00:36:55.027Z,80.70
2019-01-10T00:39:24.613Z,80.70
2019-01-10T00:41:54.309Z,80.90
2019-01-10T00:44:25.168Z,80.90
2019-01-10T00:46:54.784Z,81.00
2019-01-10T00:49:24.410Z,81.10
2019-01-10T00:51:54.034Z,81.10
2019-01-10T00:54:24.417Z,81.10
2019-01-10T00:56:53.996Z,80.90
2019-01-10T00:59:23.718Z,80.90
2019-01-10T01:01:53.342Z,81.10
2019-01-10T01:04:22.995Z,81.10
2019-01-10T01:06:52.571Z,81.10
2019-01-10T01:09:22.164Z,81.20
2019-01-10T01:11:52.531Z,81.10
2019-01-10T01:14:22.193Z,81.10
2019-01-10T01:16:51.765Z,81.20
2019-01-10T01:19:21.380Z,80.90
2019-01-10T01:21:51.755Z,81.00
2019-01-10T01:24:21.354Z,80.90
2019-01-10T01:26:50.936Z,81.00
2019-01-10T01:29:20.817Z,80.80
2019-01-10T01:31:50.437Z,81.00
2019-01-10T01:34:20.066Z,80.90
2019-01-10T01:36:50.395Z,80.80
2019-01-10T01:39:20.160Z,80.80
2019-01-10T01:41:49.828Z,80.80
2019-01-10T01:44:19.461Z,80.80
2019-01-10T01:46:49.039Z,80.90
2019-01-10T01:49:18.613Z,80.80
2019-01-10T01:51:48.290Z,80.80
2019-01-10T01:54:17.873Z,80.60
2019-01-10T01:56:47.454Z,80.50
2019-01-10T01:59:17.049Z,80.70
2019-01-10T02:01:46.637Z,80.60
2019-01-10T02:04:16.216Z,80.70
2019-01-10T02:06:45.836Z,80.70
2019-01-10T02:09:15.426Z,80.60
2019-01-10T02:11:45.046Z,80.70
2019-01-10T02:14:14.701Z,80.70
2019-01-10T02:16:44.325Z,80.50
2019-01-10T02:19:15.002Z,80.40
2019-01-10T02:21:44.582Z,80.50
2019-01-10T02:24:14.230Z,80.60
2019-01-10T02:26:43.857Z,80.50
2019-01-10T02:29:13.531Z,80.50
2019-01-10T02:31:43.127Z,80.70
2019-01-10T02:34:12.744Z,80.80
2019-01-10T02:36:43.278Z,80.70
2019-01-10T02:39:12.861Z,80.70
2019-01-10T02:41:42.564Z,80.70
2019-01-10T02:44:12.154Z,80.60
2019-01-10T02:46:41.962Z,80.50
2019-01-10T02:49:11.537Z,80.40
2019-01-10T02:51:41.152Z,80.60
2019-01-10T02:54:10.891Z,80.50
2019-01-10T02:56:40.609Z,80.50
2019-01-10T02:59:10.238Z,80.60
2019-01-10T03:01:39.941Z,80.60
2019-01-10T03:04:09.523Z,80.40
2019-01-10T03:06:39.346Z,80.50
2019-01-10T03:09:09.261Z,80.50
2019-01-10T03:11:39.047Z,80.40
2019-01-10T03:14:08.658Z,80.40
2019-01-10T03:16:39.277Z,80.50
2019-01-10T03:19:08.898Z,80.60
2019-01-10T03:21:39.199Z,80.70
2019-01-10T03:24:08.773Z,80.70
2019-01-10T03:26:38.357Z,80.70
2019-01-10T03:29:11.474Z,80.60
2019-01-10T03:31:40.260Z,80.70
2019-01-10T03:34:09.957Z,80.80
2019-01-10T03:36:39.737Z,80.90
2019-01-10T03:39:10.327Z,80.90
2019-01-10T03:41:39.946Z,80.90
2019-01-10T03:44:09.567Z,80.90
2019-01-10T03:46:39.208Z,80.90
2019-01-10T03:49:08.838Z,80.90
2019-01-10T03:51:38.525Z,80.80
2019-01-10T03:54:08.829Z,80.80
2019-01-10T03:56:38.458Z,80.90
2019-01-10T03:59:08.078Z,81.00
2019-01-10T04:01:38.098Z,80.80
2019-01-10T04:04:07.701Z,80.90
2019-01-10T04:06:39.622Z,80.90
2019-01-10T04:09:08.600Z,80.90
2019-01-10T04:11:38.231Z,80.90
2019-01-10T04:14:07.809Z,80.90
2019-01-10T04:16:37.432Z,80.90
2019-01-10T04:19:07.177Z,80.80
2019-01-10T04:21:37.161Z,80.80
2019-01-10T04:24:07.043Z,80.80
2019-01-10T04:26:36.617Z,80.70
2019-01-10T04:29:06.219Z,80.70
2019-01-10T04:31:36.005Z,80.70
2019-01-10T04:34:05.890Z,80.60
2019-01-10T04:36:35.697Z,80.60
2019-01-10T04:39:07.055Z,80.60
2019-01-10T04:41:36.632Z,80.50
2019-01-10T04:44:07.148Z,80.40
2019-01-10T04:46:37.230Z,80.50
2019-01-10T04:49:06.941Z,80.40
2019-01-10T04:51:36.494Z,80.50
2019-01-10T04:54:06.173Z,80.50
2019-01-10T04:56:35.758Z,80.60
2019-01-10T04:59:05.338Z,80.50
2019-01-10T05:01:35.098Z,80.50
2019-01-10T05:04:04.904Z,81.30
2019-01-10T05:06:34.494Z,80.60
2019-01-10T05:09:05.746Z,80.70
2019-01-10T05:11:35.542Z,80.50
2019-01-10T05:14:05.245Z,80.50
2019-01-10T05:16:34.965Z,80.70
2019-01-10T05:19:04.555Z,80.40
2019-01-10T05:21:35.555Z,80.30
2019-01-10T05:24:05.289Z,80.30
2019-01-10T05:26:35.065Z,80.30
2019-01-10T05:29:05.378Z,80.20
2019-01-10T05:31:35.032Z,80.30
2019-01-10T05:34:04.732Z,80.40
2019-01-10T05:36:34.397Z,80.50
2019-01-10T05:39:07.058Z,80.50
2019-01-10T05:41:36.964Z,80.50
2019-01-10T05:44:06.697Z,80.30
2019-01-10T05:46:36.387Z,80.30
2019-01-10T05:49:06.263Z,80.20
2019-01-10T05:51:35.879Z,80.40
2019-01-10T05:54:05.594Z,80.30
2019-01-10T05:56:35.293Z,80.10
2019-01-10T05:59:04.982Z,80.20
2019-01-10T06:01:34.752Z,80.10
2019-01-10T06:04:05.097Z,80.90
2019-01-10T06:06:34.818Z,79.80
2019-01-10T06:09:07.781Z,79.80
2019-01-10T06:11:37.441Z,80.00
2019-01-10T06:14:07.066Z,80.00
2019-01-10T06:16:36.822Z,80.00
2019-01-10T06:19:06.450Z,79.80
2019-01-10T06:21:36.109Z,79.40
2019-01-10T06:24:05.997Z,79.40
2019-01-10T06:26:35.618Z,79.20
2019-01-10T06:29:05.231Z,79.20
2019-01-10T06:31:35.607Z,79.20
2019-01-10T06:34:06.603Z,79.10
2019-01-10T06:36:36.354Z,78.90
2019-01-10T06:39:07.246Z,78.50
2019-01-10T06:41:37.758Z,78.60
2019-01-10T06:44:07.439Z,78.80
2019-01-10T06:46:37.201Z,79.00
2019-01-10T06:49:06.834Z,78.80
2019-01-10T06:51:36.449Z,78.70
2019-01-10T06:54:06.754Z,78.30
2019-01-10T06:56:36.348Z,78.40
2019-01-10T06:59:06.766Z,78.60
2019-01-10T07:01:36.505Z,78.70
2019-01-10T07:04:06.126Z,78.70
2019-01-10T07:06:37.767Z,78.50
2019-01-10T07:09:08.243Z,78.30
2019-01-10T07:11:37.924Z,78.40
2019-01-10T07:14:08.503Z,78.50
2019-01-10T07:16:38.353Z,78.50
2019-01-10T07:19:08.961Z,78.10
2019-01-10T07:21:40.429Z,77.80
2019-01-10T07:24:10.066Z,78.10
2019-01-10T07:26:39.841Z,78.00
2019-01-10T07:29:09.839Z,78.00
2019-01-10T07:31:40.077Z,77.90
2019-01-10T07:34:09.706Z,78.10
2019-01-10T07:36:39.486Z,78.10
2019-01-10T07:39:09.138Z,78.20
2019-01-10T07:41:42.667Z,78.40
2019-01-10T07:44:13.192Z,78.00
2019-01-10T07:46:46.398Z,77.90
2019-01-10T07:49:17.128Z,77.80
2019-01-10T07:51:46.902Z,77.70
2019-01-10T07:54:16.526Z,77.80
2019-01-10T07:56:46.327Z,77.50
2019-01-10T07:59:16.082Z,77.40
2019-01-10T08:01:45.710Z,77.50
2019-01-10T08:04:15.518Z,78.50
2019-01-10T08:06:45.797Z,77.60
2019-01-10T08:09:16.297Z,77.30
2019-01-10T08:11:46.102Z,77.40
2019-01-10T08:14:16.013Z,77.30
2019-01-10T08:16:45.628Z,76.90
2019-01-10T08:19:15.261Z,77.00
2019-01-10T08:21:46.529Z,76.80
2019-01-10T08:24:16.538Z,76.90
2019-01-10T08:26:47.044Z,76.70
2019-01-10T08:29:16.703Z,76.50
2019-01-10T08:31:46.313Z,76.40
2019-01-10T08:34:16.048Z,76.20
2019-01-10T08:36:45.729Z,76.10
2019-01-10T08:39:15.500Z,75.80
2019-01-10T08:41:45.194Z,75.50
2019-01-10T08:44:14.822Z,75.70
2019-01-10T08:46:44.482Z,75.80
2019-01-10T08:49:14.106Z,76.30
2019-01-10T08:51:43.816Z,76.10
2019-01-10T08:54:13.450Z,76.00
2019-01-10T08:56:43.159Z,75.80
2019-01-10T08:59:12.925Z,76.00
2019-01-10T09:01:43.699Z,76.10
2019-01-10T09:04:13.348Z,76.00
2019-01-10T09:06:42.984Z,75.80
2019-01-10T09:09:12.681Z,76.20
2019-01-10T09:11:42.557Z,75.90
2019-01-10T09:14:12.320Z,75.40
2019-01-10T09:16:41.986Z,75.70
2019-01-10T09:19:11.618Z,75.80
2019-01-10T09:21:41.307Z,75.80
2019-01-10T09:24:11.020Z,75.80
2019-01-10T09:26:43.385Z,76.60
2019-01-10T09:29:13.037Z,75.80
2019-01-10T09:31:42.685Z,75.80
2019-01-10T09:34:12.417Z,75.90
2019-01-10T09:36:42.021Z,75.50
2019-01-10T09:39:11.638Z,75.20
2019-01-10T09:41:41.335Z,75.20
2019-01-10T09:44:11.040Z,75.30
2019-01-10T09:46:40.656Z,74.80
2019-01-10T09:49:10.386Z,75.00
2019-01-10T09:51:40.200Z,74.40
2019-01-10T09:54:09.854Z,74.10
2019-01-10T09:56:39.865Z,74.20
2019-01-10T09:59:09.614Z,74.40
2019-01-10T10:01:39.248Z,74.50
2019-01-10T10:04:08.880Z,74.60
2019-01-10T10:06:38.685Z,74.70
2019-01-10T10:09:08.353Z,73.70
2019-01-10T10:11:37.969Z,74.10
2019-01-10T10:14:07.662Z,74.10
2019-01-10T10:16:38.067Z,73.60
2019-01-10T10:19:07.681Z,73.40
2019-01-10T10:21:37.329Z,73.60
2019-01-10T10:24:07.753Z,73.50
2019-01-10T10:26:37.421Z,73.10
2019-01-10T10:29:07.186Z,72.30
2019-01-10T10:31:36.975Z,72.80
2019-01-10T10:34:06.712Z,73.00
2019-01-10T10:36:36.345Z,73.10
2019-01-10T10:39:07.144Z,73.20
2019-01-10T10:41:36.957Z,72.50
2019-01-10T10:44:07.393Z,73.00
2019-01-10T10:46:37.706Z,73.00
2019-01-10T10:49:07.422Z,73.30
2019-01-10T10:51:37.034Z,73.30
2019-01-10T10:54:06.724Z,72.90
2019-01-10T10:56:36.617Z,73.00
2019-01-10T10:59:06.270Z,72.90
2019-01-10T11:01:35.942Z,72.70
2019-01-10T11:04:05.746Z,72.50
2019-01-10T11:06:36.117Z,72.40
2019-01-10T11:09:09.279Z,72.50
2019-01-10T11:11:38.825Z,72.80
2019-01-10T11:14:08.469Z,72.80
2019-01-10T11:16:38.327Z,72.80
2019-01-10T11:19:07.957Z,72.70
2019-01-10T11:21:37.553Z,72.00
2019-01-10T11:24:07.242Z,72.00
2019-01-10T11:26:36.886Z,72.30
2019-01-10T11:29:06.697Z,72.20
2019-01-10T11:31:36.477Z,72.00
2019-01-10T11:34:06.169Z,72.40
2019-01-10T11:36:36.006Z,72.10
2019-01-10T11:39:07.635Z,72.00
2019-01-10T11:41:37.292Z,72.80
2019-01-10T11:44:06.980Z,72.10
2019-01-10T11:46:36.782Z,71.90
2019-01-10T11:49:06.565Z,71.90
2019-01-10T11:51:36.220Z,71.70
2019-01-10T11:54:06.621Z,70.80
2019-01-10T11:56:36.250Z,70.80
2019-01-10T11:59:06.582Z,70.70
2019-01-10T12:01:36.278Z,70.90
2019-01-10T12:04:05.896Z,71.50
2019-01-10T12:06:35.764Z,71.70
2019-01-10T12:09:06.658Z,71.70
2019-01-10T12:11:38.339Z,71.30
2019-01-10T12:14:08.225Z,71.60
2019-01-10T12:16:37.845Z,71.50
2019-01-10T12:19:07.454Z,71.30
2019-01-10T12:21:37.057Z,71.30
2019-01-10T12:24:06.830Z,71.30
2019-01-10T12:26:36.517Z,71.30
2019-01-10T12:29:06.374Z,70.90
2019-01-10T12:31:36.061Z,71.50
2019-01-10T12:34:05.691Z,72.10
2019-01-10T12:36:35.346Z,72.20
2019-01-10T12:39:06.730Z,72.80
2019-01-10T12:41:36.406Z,73.00
2019-01-10T12:44:06.495Z,72.70
2019-01-10T12:46:37.944Z,72.90
2019-01-10T12:49:07.618Z,72.80
2019-01-10T12:51:37.398Z,72.50
2019-01-10T12:54:07.913Z,72.30
2019-01-10T12:56:37.617Z,72.50
2019-01-10T12:59:07.934Z,71.60
2019-01-10T13:01:37.739Z,71.10
2019-01-10T13:04:07.502Z,71.70
2019-01-10T13:06:37.223Z,71.80
2019-01-10T13:09:07.939Z,72.30
2019-01-10T13:11:37.733Z,72.00
2019-01-10T13:14:07.515Z,72.30
2019-01-10T13:16:46.436Z,73.20
2019-01-10T13:19:09.802Z,72.30
2019-01-10T13:21:39.485Z,72.50
2019-01-10T13:24:09.121Z,72.10
2019-01-10T13:26:38.958Z,72.30
2019-01-10T13:29:08.674Z,72.90
2019-01-10T13:31:38.320Z,72.30
2019-01-10T13:34:08.724Z,72.40
2019-01-10T13:36:39.950Z,72.20
2019-01-10T13:39:09.574Z,71.90
2019-01-10T13:41:39.352Z,71.80
2019-01-10T13:44:10.813Z,71.70
2019-01-10T13:46:40.515Z,71.30
2019-01-10T13:49:10.950Z,71.40
2019-01-10T13:51:41.667Z,71.30
2019-01-10T13:54:11.452Z,71.30
2019-01-10T13:56:41.894Z,70.60
2019-01-10T14:01:42.369Z,70.60
2019-01-10T14:06:41.797Z,70.20
2019-01-10T14:09:11.706Z,70.00
2019-01-10T14:11:41.486Z,69.90
2019-01-10T14:14:11.998Z,70.30
2019-01-10T14:16:41.611Z,70.60
2019-01-10T14:19:11.291Z,71.10
2019-01-10T14:21:46.451Z,71.60
2019-01-10T14:24:12.430Z,71.20
2019-01-10T14:26:42.218Z,71.20
2019-01-10T14:29:11.921Z,71.40
2019-01-10T14:31:41.717Z,71.50
2019-01-10T14:34:14.256Z,71.40
2019-01-10T14:36:42.828Z,71.00
2019-01-10T14:39:12.489Z,70.60
2019-01-10T14:41:42.113Z,70.90
2019-01-10T14:44:12.874Z,70.50
2019-01-10T14:46:42.496Z,70.40
2019-01-10T14:49:12.125Z,70.10
2019-01-10T14:51:41.925Z,70.40
2019-01-10T14:54:11.818Z,70.00
2019-01-10T14:56:41.460Z,70.60
2019-01-10T14:59:11.126Z,70.90
2019-01-10T15:01:40.893Z,71.00
2019-01-10T15:04:10.938Z,71.10
2019-01-10T15:06:40.825Z,71.00
2019-01-10T15:09:10.738Z,71.00
2019-01-10T15:11:40.431Z,70.90
2019-01-10T15:14:16.179Z,70.70
2019-01-10T15:16:42.268Z,71.10
2019-01-10T15:19:11.889Z,71.20
2019-01-10T15:21:41.541Z,71.10
2019-01-10T15:24:12.268Z,71.40
2019-01-10T15:26:42.108Z,71.10
2019-01-10T15:29:12.703Z,71.10
2019-01-10T15:31:42.434Z,71.10
2019-01-10T15:34:12.123Z,71.00
2019-01-10T15:36:41.901Z,71.30
2019-01-10T15:39:11.529Z,71.20
2019-01-10T15:41:41.224Z,71.00
2019-01-10T15:44:10.918Z,70.30
2019-01-10T15:46:40.541Z,70.30
2019-01-10T15:49:10.269Z,70.10
2019-01-10T15:51:39.880Z,70.20
2019-01-10T15:54:09.678Z,69.80
2019-01-10T15:56:39.418Z,69.90
2019-01-10T15:59:09.025Z,69.70
2019-01-10T16:01:38.725Z,69.70
2019-01-10T16:04:08.601Z,69.90
2019-01-10T16:06:38.395Z,70.00
2019-01-10T16:09:08.017Z,70.00
2019-01-10T16:11:37.864Z,69.80
2019-01-10T16:14:07.477Z,69.80
2019-01-10T16:16:37.134Z,70.20
2019-01-10T16:19:06.865Z,69.90
2019-01-10T16:21:36.572Z,70.00
2019-01-10T16:24:06.151Z,70.40
2019-01-10T16:26:35.769Z,70.60
2019-01-10T16:29:05.426Z,70.30
2019-01-10T16:31:35.038Z,70.20
2019-01-10T16:34:04.619Z,70.10
2019-01-10T16:36:34.241Z,69.60
2019-01-10T16:39:06.008Z,69.80
2019-01-10T16:41:35.598Z,70.00
2019-01-10T16:44:05.174Z,69.90
2019-01-10T16:46:35.261Z,70.00
2019-01-10T16:49:04.903Z,70.20
2019-01-10T16:51:34.633Z,70.20
2019-01-10T16:54:04.205Z,70.20
2019-01-10T16:56:33.790Z,69.70
2019-01-10T16:59:03.814Z,69.50
2019-01-10T17:01:33.581Z,68.20
2019-01-10T17:04:03.464Z,67.90
2019-01-10T17:06:33.089Z,67.70
2019-01-10T17:09:03.290Z,67.40
2019-01-10T17:11:33.878Z,68.10
2019-01-10T17:14:03.489Z,68.30
2019-01-10T17:16:33.077Z,68.70
2019-01-10T17:19:02.650Z,68.60
2019-01-10T17:21:33.022Z,68.40
2019-01-10T17:24:02.597Z,68.30
2019-01-10T17:26:32.288Z,68.30
2019-01-10T17:29:01.917Z,68.50
2019-01-10T17:31:31.493Z,68.30
2019-01-10T17:34:01.182Z,68.50
2019-01-10T17:36:30.948Z,68.70
2019-01-10T17:39:00.561Z,68.80
2019-01-10T17:41:31.158Z,68.30
2019-01-10T17:44:00.782Z,68.40
2019-01-10T17:46:30.449Z,68.80
2019-01-10T17:49:00.056Z,68.70
2019-01-10T17:51:29.725Z,68.90
2019-01-10T17:53:59.702Z,69.00
2019-01-10T17:56:29.317Z,69.00
2019-01-10T17:58:58.942Z,69.00
2019-01-10T18:01:28.516Z,69.00
2019-01-10T18:03:58.222Z,68.90
2019-01-10T18:06:27.890Z,68.90
2019-01-10T18:08:57.705Z,68.90
2019-01-10T18:11:27.419Z,69.30
2019-01-10T18:13:57.116Z,69.00
2019-01-10T18:16:26.745Z,69.00
2019-01-10T18:18:56.460Z,68.90
2019-01-10T18:21:26.069Z,69.00
2019-01-10T18:23:55.654Z,69.10
2019-01-10T18:26:25.454Z,68.90
2019-01-10T18:28:56.290Z,68.90
2019-01-10T18:31:26.126Z,68.80
2019-01-10T18:33:55.700Z,68.80
2019-01-10T18:36:25.389Z,69.00
2019-01-10T18:38:55.064Z,69.00
2019-01-10T18:41:24.696Z,69.00
2019-01-10T18:43:54.305Z,69.00
2019-01-10T18:46:25.137Z,69.10
2019-01-10T18:48:54.841Z,69.10
2019-01-10T18:51:24.547Z,68.70
2019-01-10T18:53:54.135Z,68.80
2019-01-10T18:56:23.749Z,68.80
2019-01-10T18:58:54.123Z,69.00
2019-01-10T19:01:24.910Z,69.30
2019-01-10T19:03:54.558Z,69.50
2019-01-10T19:06:24.325Z,69.40
2019-01-10T19:08:54.008Z,69.60
2019-01-10T19:11:23.793Z,69.50
2019-01-10T19:13:53.703Z,69.30
2019-01-10T19:16:23.314Z,69.00
2019-01-10T19:18:52.980Z,68.90
2019-01-10T19:21:22.580Z,69.10
2019-01-10T19:23:52.536Z,69.10
2019-01-10T19:26:22.391Z,69.10
2019-01-10T19:28:52.097Z,69.10
2019-01-10T19:31:21.916Z,69.20
2019-01-10T19:33:51.808Z,69.10
2019-01-10T19:36:21.486Z,69.10
2019-01-10T19:38:51.089Z,69.50
2019-01-10T19:41:20.723Z,69.70
2019-01-10T19:43:50.348Z,69.90
2019-01-10T19:46:19.970Z,69.90
2019-01-10T19:48:50.237Z,69.80
2019-01-10T19:51:19.850Z,70.00
2019-01-10T19:53:50.185Z,69.90
2019-01-10T19:56:19.765Z,70.00
2019-01-10T19:58:49.336Z,70.10
2019-01-10T20:01:18.938Z,69.90
2019-01-10T20:03:48.520Z,69.90
2019-01-10T20:06:18.143Z,69.80
2019-01-10T20:08:47.755Z,69.90
2019-01-10T20:11:18.350Z,69.80
2019-01-10T20:13:48.042Z,69.60
2019-01-10T20:16:17.652Z,69.40
2019-01-10T20:18:47.945Z,69.60
2019-01-10T20:21:17.565Z,69.90
2019-01-10T20:23:47.343Z,70.00
2019-01-10T20:26:17.885Z,70.30
2019-01-10T20:28:47.636Z,70.60
2019-01-10T20:31:17.360Z,70.30
2019-01-10T20:33:46.990Z,70.40
2019-01-10T20:36:16.561Z,70.50
2019-01-10T20:38:46.218Z,70.50
2019-01-10T20:41:15.989Z,70.40
2019-01-10T20:43:45.602Z,70.20
2019-01-10T20:46:15.186Z,70.10
2019-01-10T20:48:44.874Z,70.10
2019-01-10T20:51:14.480Z,70.10
2019-01-10T20:53:44.061Z,69.90
2019-01-10T20:56:13.708Z,69.60
2019-01-10T20:58:44.180Z,69.30
2019-01-10T21:01:14.468Z,69.20
2019-01-10T21:03:44.316Z,69.00
2019-01-10T21:06:14.500Z,69.30
2019-01-10T21:08:44.104Z,69.50
2019-01-10T21:11:13.728Z,69.60
2019-01-10T21:13:43.359Z,69.70
2019-01-10T21:16:12.929Z,69.60
2019-01-10T21:18:42.610Z,69.40
2019-01-10T21:21:12.233Z,69.70
2019-01-10T21:23:41.854Z,69.60
2019-01-10T21:26:12.272Z,70.20
2019-01-10T21:28:42.821Z,70.00
2019-01-10T21:31:12.568Z,69.80
2019-01-10T21:33:42.229Z,69.60
2019-01-10T21:36:12.014Z,69.50
2019-01-10T21:38:41.638Z,69.50
2019-01-10T21:41:11.999Z,69.30
2019-01-10T21:43:41.788Z,69.50
2019-01-10T21:46:11.409Z,69.60
2019-01-10T21:48:40.990Z,69.70
2019-01-10T21:51:10.816Z,69.50
2019-01-10T21:53:40.385Z,69.60
2019-01-10T21:56:09.997Z,69.60
2019-01-10T21:58:39.660Z,69.50
2019-01-10T22:01:09.282Z,69.60
2019-01-10T22:03:38.859Z,69.70
2019-01-10T22:06:08.572Z,69.70
2019-01-10T22:08:38.188Z,70.50
2019-01-10T22:11:07.823Z,69.70
2019-01-10T22:13:37.518Z,69.40
2019-01-10T22:16:07.094Z,69.20
2019-01-10T22:18:41.419Z,69.00
2019-01-10T22:21:08.407Z,68.90
2019-01-10T22:23:37.994Z,68.90
2019-01-10T22:26:07.601Z,69.10
2019-01-10T22:28:37.528Z,69.10
2019-01-10T22:31:07.502Z,68.60
2019-01-10T22:33:37.094Z,68.80
2019-01-10T22:36:06.800Z,68.90
2019-01-10T22:38:36.422Z,68.80
2019-01-10T22:41:05.998Z,69.00
2019-01-10T22:43:35.698Z,68.80
2019-01-10T22:46:05.325Z,68.80
2019-01-10T22:48:34.950Z,68.90
2019-01-10T22:51:04.998Z,68.90
2019-01-10T22:53:34.616Z,68.70
2019-01-10T22:56:04.375Z,68.70
2019-01-10T22:58:34.001Z,68.70
2019-01-10T23:01:05.883Z,69.00
2019-01-10T23:03:36.920Z,69.20
2019-01-10T23:06:06.834Z,69.20
2019-01-10T23:08:41.540Z,69.10
2019-01-10T23:11:14.378Z,69.20
2019-01-10T23:13:49.128Z,69.50
2019-01-10T23:16:20.285Z,69.50
2019-01-10T23:18:54.211Z,69.70
2019-01-10T23:21:21.462Z,69.80
2019-01-10T23:23:56.824Z,70.00
2019-01-10T23:26:26.392Z,70.10
2019-01-10T23:28:56.012Z,70.20
2019-01-10T23:31:25.758Z,70.20
2019-01-10T23:33:57.703Z,70.10
2019-01-10T23:36:27.316Z,70.10
2019-01-10T23:39:12.943Z,70.30
2019-01-10T23:41:42.566Z,70.50
2019-01-10T23:44:12.190Z,70.60
2019-01-10T23:46:41.800Z,70.70
2019-01-10T23:49:11.377Z,70.90
2019-01-10T23:51:40.965Z,71.00
2019-01-10T23:54:10.616Z,71.00
2019-01-10T23:56:40.241Z,71.10
2019-01-10T23:59:09.942Z,71.10
